Darstellungsparameter: Aktuell verwendete Einstellungen:
Skalierung der Graphiken ... ?
xyx+y,   Skalierungsfaktor:      Skalierung: Modus: x, Faktor: 1
Darstellungszeitraum ... ?
Vom - - bis: - -   Zeitraum: 19.05.2015 - 19.05.2015
Min/Max/Avg-Anzeige ... ?
Zeige MMA aktuell
Zeige MMA Monat
Zeige MMA alles
Zeige --A aktuell
Zeige --A Monat
Zeige --A alles
Keine MMA-Anzeige
MMA:
Average (ber die Originaldaten)
MMA-Basis: 19.05.2015 - 19.05.2015
Quicknavigation für Darstellung... ?
Tage:      1T, 2T, 3T, 5T -1T -2T -3T -5T +1T +2T +3T +5T
Wochen: 1W, 2W, 3W -1W -2W -3W +1W +2W +3W
Monate: 1M, 3M, 6M -1M -3M -6M +1M +3M +6M
Jahre:    1J, 3J, 5J, 10J -1J -3J -5J -10J +1J +3J +5J +10J
Nutze für die Darstellung ... ?
Originaldaten oder Mittelwerte auf ...
Stundenbasis Tagesbasis Wochenbasis
Monatsbasis Jahresbasis      Datenbasis: Original-Daten
Darstellen als:
Statistik (Auto) Statistik J:M      Darstellung:
Zur Graphik,    zurück zur Übersicht aller Sensoren.
 
Tabellarische Datenbersicht: ?
 
Sensor: Nr:Datum:Temp:Abs-Feuchte:Windchill:Wind:
Aussen-T/F 1 19-05-2015 00:00:00 13.6 C 8.59 g/m*3 13.6 C 0 km/h
2 19-05-2015 00:05:00 13.6 C 8.47 g/m*3 13.6 C 0 km/h
3 19-05-2015 00:10:00 13.4 C 8.49 g/m*3 13.4 C 0 km/h
4 19-05-2015 00:15:00 13.3 C 8.43 g/m*3 13.3 C 0 km/h
5 19-05-2015 00:20:00 13.2 C 8.5 g/m*3 13.2 C 0 km/h
6 19-05-2015 00:25:00 13.2 C 8.61 g/m*3 13.2 C 0 km/h
7 19-05-2015 00:30:00 13.2 C 8.5 g/m*3 13.2 C 0 km/h
8 19-05-2015 00:35:00 13.3 C 8.55 g/m*3 13.3 C 0 km/h
9 19-05-2015 00:40:00 13.4 C 8.49 g/m*3 13.4 C 1.6 km/h
10 19-05-2015 00:45:00 13.6 C 8.71 g/m*3 13.6 C 12.9 km/h
11 19-05-2015 00:50:00 13.9 C 9.35 g/m*3 13.9 C 16.1 km/h
12 19-05-2015 00:55:00 14.1 C 9.47 g/m*3 14.1 C 14.5 km/h
13 19-05-2015 01:00:00 13.9 C 9.35 g/m*3 13.9 C 9.7 km/h
14 19-05-2015 01:05:00 13.8 C 9.41 g/m*3 13.8 C 9.7 km/h
15 19-05-2015 01:10:00 13.6 C 9.3 g/m*3 13.6 C 3.2 km/h
16 19-05-2015 01:15:00 13.4 C 9.18 g/m*3 13.4 C 6.4 km/h
17 19-05-2015 01:20:00 13.3 C 9.01 g/m*3 13.3 C 3.2 km/h
18 19-05-2015 01:25:00 13.2 C 8.96 g/m*3 13.2 C 6.4 km/h
19 19-05-2015 01:30:00 13.1 C 8.9 g/m*3 13.1 C 12.9 km/h
20 19-05-2015 01:35:00 12.9 C 8.9 g/m*3 12.9 C 4.8 km/h
21 19-05-2015 01:40:00 12.8 C 8.85 g/m*3 12.8 C 1.6 km/h
22 19-05-2015 01:45:00 12.7 C 8.79 g/m*3 12.7 C 8.1 km/h
23 19-05-2015 01:50:00 12.6 C 8.74 g/m*3 12.6 C 8.1 km/h
24 19-05-2015 01:55:00 12.6 C 8.74 g/m*3 12.6 C 3.2 km/h
25 19-05-2015 02:00:00 12.6 C 8.74 g/m*3 12.6 C 4.8 km/h
Sensor: Nr:Datum:Temp:Abs-Feuchte:Windchill:Wind:
Aussen-T/F 26 19-05-2015 02:05:00 12.5 C 8.69 g/m*3 12.5 C 1.6 km/h
27 19-05-2015 02:10:00 12.5 C 8.69 g/m*3 12.5 C 1.6 km/h
28 19-05-2015 02:15:00 12.4 C 8.52 g/m*3 12.4 C 9.7 km/h
29 19-05-2015 02:20:00 12.4 C 8.52 g/m*3 12.4 C 9.7 km/h
30 19-05-2015 02:25:00 12.4 C 8.52 g/m*3 12.4 C 8.1 km/h
31 19-05-2015 02:30:00 12.4 C 8.52 g/m*3 12.4 C 8.1 km/h
32 19-05-2015 02:35:00 12.3 C 8.36 g/m*3 12.3 C 6.4 km/h
33 19-05-2015 02:40:00 12.3 C 8.47 g/m*3 12.3 C 6.4 km/h
34 19-05-2015 02:45:00 12.3 C 8.47 g/m*3 12.3 C 4.8 km/h
35 19-05-2015 02:50:00 12.2 C 8.42 g/m*3 12.2 C 3.2 km/h
36 19-05-2015 02:55:00 12.1 C 8.36 g/m*3 12.1 C 6.4 km/h
37 19-05-2015 03:00:00 12.1 C 8.36 g/m*3 12.1 C 3.2 km/h
38 19-05-2015 03:05:00 11.9 C 8.37 g/m*3 11.9 C 6.4 km/h
39 19-05-2015 03:10:00 11.9 C 8.47 g/m*3 11.9 C 4.8 km/h
40 19-05-2015 03:15:00 11.8 C 8.21 g/m*3 11.8 C 1.6 km/h
41 19-05-2015 03:20:00 11.8 C 8.42 g/m*3 11.8 C 3.2 km/h
42 19-05-2015 03:25:00 11.7 C 8.37 g/m*3 11.7 C 3.2 km/h
43 19-05-2015 03:30:00 11.7 C 8.47 g/m*3 11.7 C 1.6 km/h
44 19-05-2015 03:35:00 11.6 C 8.42 g/m*3 11.6 C 3.2 km/h
45 19-05-2015 03:40:00 11.5 C 8.37 g/m*3 11.5 C 1.6 km/h
46 19-05-2015 03:45:00 11.5 C 8.37 g/m*3 11.5 C 0 km/h
47 19-05-2015 03:50:00 11.5 C 8.37 g/m*3 11.5 C 0 km/h
48 19-05-2015 06:50:00 8.2 C 7.37 g/m*3 8.2 C 4.8 km/h
49 19-05-2015 06:55:00 8.3 C 7.25 g/m*3 8.3 C 4.8 km/h
50 19-05-2015 07:00:00 8.4 C 7.21 g/m*3 8.4 C 4.8 km/h
Sensor: Nr:Datum:Temp:Abs-Feuchte:Windchill:Wind:
Aussen-T/F 51 19-05-2015 07:05:00 8.4 C 7.13 g/m*3 7.11 C 8.1 km/h
52 19-05-2015 07:10:00 8.3 C 7.16 g/m*3 8.3 C 3.2 km/h
53 19-05-2015 07:15:00 8.3 C 7.16 g/m*3 7.41 C 6.4 km/h
54 19-05-2015 07:20:00 8.3 C 6.91 g/m*3 8.3 C 4.8 km/h
55 19-05-2015 07:25:00 8.4 C 7.04 g/m*3 8.4 C 4.8 km/h
56 19-05-2015 07:30:00 8.4 C 6.87 g/m*3 8.4 C 3.2 km/h
57 19-05-2015 07:35:00 8.6 C 6.96 g/m*3 8.6 C 4.8 km/h
58 19-05-2015 07:40:00 8.7 C 7.01 g/m*3 8.7 C 4.8 km/h
59 19-05-2015 07:45:00 8.8 C 6.88 g/m*3 7.58 C 8.1 km/h
60 19-05-2015 07:50:00 8.9 C 6.83 g/m*3 7.69 C 8.1 km/h
61 19-05-2015 07:55:00 9.1 C 6.83 g/m*3 8.33 C 6.4 km/h
62 19-05-2015 08:00:00 9.3 C 6.92 g/m*3 7.58 C 11.3 km/h
63 19-05-2015 08:05:00 9.4 C 6.96 g/m*3 9.4 C 4.8 km/h
64 19-05-2015 08:10:00 9.7 C 7.01 g/m*3 9.7 C 4.8 km/h
65 19-05-2015 08:15:00 10 C 7.14 g/m*3 8.99 C 8.1 km/h
66 19-05-2015 08:20:00 10.4 C 7.13 g/m*3 9.16 C 9.7 km/h
67 19-05-2015 08:25:00 10.8 C 7.22 g/m*3 8.61 C 17.7 km/h
68 19-05-2015 08:30:00 11 C 7.21 g/m*3 9.4 C 12.9 km/h
69 19-05-2015 08:35:00 10.9 C 6.96 g/m*3 9.08 C 14.5 km/h
70 19-05-2015 08:40:00 10.9 C 7.06 g/m*3 9.51 C 11.3 km/h
71 19-05-2015 08:45:00 10.9 C 6.96 g/m*3 9.76 C 9.7 km/h
72 19-05-2015 08:50:00 11 C 7.11 g/m*3 9.63 C 11.3 km/h
73 19-05-2015 08:55:00 10.9 C 6.96 g/m*3 9.76 C 9.7 km/h
74 19-05-2015 09:00:00 10.8 C 6.92 g/m*3 9.38 C 11.3 km/h
75 19-05-2015 09:05:00 10.9 C 7.06 g/m*3 9.28 C 12.9 km/h
Sensor: Nr:Datum:Temp:Abs-Feuchte:Windchill:Wind:
Aussen-T/F 76 19-05-2015 09:10:00 10.9 C 6.86 g/m*3 9.51 C 11.3 km/h
77 19-05-2015 09:15:00 11 C 6.91 g/m*3 9.02 C 16.1 km/h
78 19-05-2015 09:20:00 11.1 C 7.05 g/m*3 11.1 C 9.7 km/h
79 19-05-2015 09:25:00 11.2 C 6.89 g/m*3 11.2 C 8.1 km/h
80 19-05-2015 09:30:00 11.1 C 6.95 g/m*3 11.1 C 11.3 km/h
81 19-05-2015 09:35:00 11.2 C 6.79 g/m*3 11.2 C 17.7 km/h
82 19-05-2015 09:40:00 11.3 C 7.04 g/m*3 11.3 C 9.7 km/h
83 19-05-2015 09:45:00 11.3 C 6.94 g/m*3 11.3 C 12.9 km/h
84 19-05-2015 09:50:00 11.3 C 6.83 g/m*3 11.3 C 12.9 km/h
85 19-05-2015 09:55:00 11.4 C 6.88 g/m*3 11.4 C 12.9 km/h
86 19-05-2015 10:00:00 11.6 C 6.96 g/m*3 11.6 C 16.1 km/h
87 19-05-2015 10:05:00 11.8 C 6.84 g/m*3 11.8 C 12.9 km/h
88 19-05-2015 10:10:00 12 C 7.14 g/m*3 12 C 8.1 km/h
89 19-05-2015 10:15:00 12.3 C 7.06 g/m*3 12.3 C 8.1 km/h
90 19-05-2015 10:20:00 12.4 C 7.1 g/m*3 12.4 C 11.3 km/h
91 19-05-2015 10:25:00 12.6 C 6.97 g/m*3 12.6 C 12.9 km/h
92 19-05-2015 10:30:00 12.6 C 6.97 g/m*3 12.6 C 14.5 km/h
93 19-05-2015 10:35:00 12.8 C 6.83 g/m*3 12.8 C 11.3 km/h
94 19-05-2015 10:40:00 12.9 C 6.99 g/m*3 12.9 C 9.7 km/h
95 19-05-2015 10:45:00 13 C 6.8 g/m*3 13 C 12.9 km/h
96 19-05-2015 10:50:00 12.9 C 6.65 g/m*3 12.9 C 12.9 km/h
97 19-05-2015 10:55:00 13.2 C 7.12 g/m*3 13.2 C 11.3 km/h
98 19-05-2015 11:00:00 13.4 C 6.97 g/m*3 13.4 C 14.5 km/h
99 19-05-2015 11:05:00 13.4 C 6.74 g/m*3 13.4 C 14.5 km/h
100 19-05-2015 11:10:00 13.3 C 6.7 g/m*3 13.3 C 17.7 km/h
Sensor: Nr:Datum:Temp:Abs-Feuchte:Windchill:Wind:
Aussen-T/F 101 19-05-2015 11:15:00 13.6 C 6.71 g/m*3 13.6 C 16.1 km/h
102 19-05-2015 11:20:00 13.9 C 6.71 g/m*3 13.9 C 11.3 km/h
103 19-05-2015 11:25:00 14.3 C 6.76 g/m*3 14.3 C 17.7 km/h
104 19-05-2015 11:30:00 14.1 C 6.67 g/m*3 14.1 C 14.5 km/h
105 19-05-2015 11:35:00 13.8 C 6.67 g/m*3 13.8 C 12.9 km/h
106 19-05-2015 11:40:00 13.6 C 6.59 g/m*3 13.6 C 6.4 km/h
107 19-05-2015 11:45:00 13.4 C 6.51 g/m*3 13.4 C 12.9 km/h
108 19-05-2015 11:50:00 13.7 C 6.39 g/m*3 13.7 C 16.1 km/h
109 19-05-2015 11:55:00 13.7 C 6.39 g/m*3 13.7 C 17.7 km/h
110 19-05-2015 12:00:00 14.1 C 6.8 g/m*3 14.1 C 12.9 km/h
111 19-05-2015 12:05:00 14.3 C 6.63 g/m*3 14.3 C 11.3 km/h
112 19-05-2015 12:10:00 14.3 C 6.51 g/m*3 14.3 C 20.9 km/h
113 19-05-2015 12:15:00 14.7 C 6.67 g/m*3 14.7 C 16.1 km/h
114 19-05-2015 12:20:00 15.1 C 6.84 g/m*3 15.1 C 11.3 km/h
115 19-05-2015 12:25:00 15.1 C 6.45 g/m*3 15.1 C 20.9 km/h
116 19-05-2015 12:30:00 14.5 C 6.34 g/m*3 14.5 C 25.7 km/h
117 19-05-2015 12:35:00 14.3 C 6.27 g/m*3 14.3 C 12.9 km/h
118 19-05-2015 12:40:00 14.2 C 6.35 g/m*3 14.2 C 16.1 km/h
119 19-05-2015 12:45:00 14.6 C 6.63 g/m*3 14.6 C 17.7 km/h
120 19-05-2015 12:50:00 14.9 C 6.37 g/m*3 14.9 C 16.1 km/h
121 19-05-2015 12:55:00 15.1 C 6.71 g/m*3 15.1 C 16.1 km/h
122 19-05-2015 13:00:00 15.4 C 6.31 g/m*3 15.4 C 22.5 km/h
123 19-05-2015 13:05:00 15.3 C 6.66 g/m*3 15.3 C 8.1 km/h
124 19-05-2015 13:10:00 15.3 C 6.14 g/m*3 15.3 C 25.7 km/h
125 19-05-2015 13:15:00 15.3 C 6.14 g/m*3 15.3 C 19.3 km/h
Sensor: Nr:Datum:Temp:Abs-Feuchte:Windchill:Wind:
Aussen-T/F 126 19-05-2015 13:20:00 15.2 C 6.23 g/m*3 15.2 C 11.3 km/h
127 19-05-2015 13:25:00 15.2 C 6.36 g/m*3 15.2 C 19.3 km/h
128 19-05-2015 13:30:00 15.1 C 6.45 g/m*3 15.1 C 11.3 km/h
129 19-05-2015 13:35:00 15.1 C 6.32 g/m*3 15.1 C 12.9 km/h
130 19-05-2015 13:40:00 15 C 6.15 g/m*3 15 C 19.3 km/h
131 19-05-2015 13:45:00 15.1 C 6.45 g/m*3 15.1 C 12.9 km/h
132 19-05-2015 13:50:00 15.9 C 6.64 g/m*3 15.9 C 12.9 km/h
133 19-05-2015 13:55:00 16.5 C 6.32 g/m*3 16.5 C 14.5 km/h
134 19-05-2015 14:00:00 16.7 C 6.25 g/m*3 16.7 C 25.7 km/h
135 19-05-2015 14:05:00 16.9 C 6.47 g/m*3 16.9 C 14.5 km/h
136 19-05-2015 14:10:00 16.9 C 6.18 g/m*3 16.9 C 22.5 km/h
137 19-05-2015 14:15:00 16.8 C 6.29 g/m*3 16.8 C 25.7 km/h
138 19-05-2015 14:20:00 16.9 C 6.62 g/m*3 16.9 C 14.5 km/h
139 19-05-2015 14:25:00 17.1 C 6.11 g/m*3 17.1 C 20.9 km/h
140 19-05-2015 14:30:00 17.1 C 6.4 g/m*3 17.1 C 12.9 km/h
141 19-05-2015 14:35:00 17 C 6.51 g/m*3 17 C 14.5 km/h
142 19-05-2015 14:40:00 17.3 C 6.48 g/m*3 17.3 C 19.3 km/h
143 19-05-2015 14:45:00 17.3 C 6.33 g/m*3 17.3 C 17.7 km/h
144 19-05-2015 14:50:00 16.9 C 6.18 g/m*3 16.9 C 11.3 km/h
145 19-05-2015 14:55:00 17 C 6.37 g/m*3 17 C 19.3 km/h
146 19-05-2015 15:00:00 17.3 C 6.33 g/m*3 17.3 C 17.7 km/h
147 19-05-2015 15:05:00 17.2 C 6.15 g/m*3 17.2 C 16.1 km/h
148 19-05-2015 15:10:00 17.4 C 6.37 g/m*3 17.4 C 14.5 km/h
149 19-05-2015 15:15:00 17.4 C 6.08 g/m*3 17.4 C 16.1 km/h
150 19-05-2015 15:20:00 16.8 C 6 g/m*3 16.8 C 14.5 km/h
Sensor: Nr:Datum:Temp:Abs-Feuchte:Windchill:Wind:
Aussen-T/F 151 19-05-2015 15:25:00 16.7 C 6.25 g/m*3 16.7 C 19.3 km/h
152 19-05-2015 15:30:00 17.1 C 6.4 g/m*3 17.1 C 9.7 km/h
153 19-05-2015 15:35:00 17.3 C 6.92 g/m*3 17.3 C 12.9 km/h
154 19-05-2015 15:40:00 17.4 C 5.93 g/m*3 17.4 C 19.3 km/h
155 19-05-2015 15:45:00 16.8 C 5.86 g/m*3 16.8 C 17.7 km/h
156 19-05-2015 15:50:00 16.4 C 5.86 g/m*3 16.4 C 16.1 km/h
157 19-05-2015 15:55:00 16.1 C 5.89 g/m*3 16.1 C 12.9 km/h
158 19-05-2015 16:00:00 16.1 C 6.03 g/m*3 16.1 C 16.1 km/h
159 19-05-2015 16:05:00 16.3 C 6.24 g/m*3 16.3 C 16.1 km/h
160 19-05-2015 16:10:00 16.8 C 6.43 g/m*3 16.8 C 16.1 km/h
161 19-05-2015 16:15:00 17.4 C 6.52 g/m*3 17.4 C 16.1 km/h
162 19-05-2015 16:20:00 18.1 C 6.64 g/m*3 18.1 C 12.9 km/h
163 19-05-2015 16:25:00 18.3 C 6.41 g/m*3 18.3 C 14.5 km/h
164 19-05-2015 16:30:00 18.3 C 6.1 g/m*3 18.3 C 14.5 km/h
165 19-05-2015 16:35:00 17.4 C 5.93 g/m*3 17.4 C 19.3 km/h
166 19-05-2015 16:40:00 16.6 C 5.79 g/m*3 16.6 C 11.3 km/h
167 19-05-2015 16:45:00 16.3 C 5.97 g/m*3 16.3 C 20.9 km/h
168 19-05-2015 16:50:00 16 C 5.86 g/m*3 16 C 14.5 km/h
169 19-05-2015 16:55:00 15.9 C 5.96 g/m*3 15.9 C 9.7 km/h
170 19-05-2015 17:00:00 16.1 C 6.03 g/m*3 16.1 C 11.3 km/h
171 19-05-2015 17:05:00 16.7 C 6.25 g/m*3 16.7 C 14.5 km/h
172 19-05-2015 17:10:00 17.1 C 6.11 g/m*3 17.1 C 19.3 km/h
173 19-05-2015 17:15:00 16.8 C 6.15 g/m*3 16.8 C 14.5 km/h
174 19-05-2015 17:20:00 16.5 C 5.9 g/m*3 16.5 C 16.1 km/h
175 19-05-2015 17:25:00 16.3 C 6.1 g/m*3 16.3 C 14.5 km/h
Sensor: Nr:Datum:Temp:Abs-Feuchte:Windchill:Wind:
Aussen-T/F 176 19-05-2015 17:30:00 15.9 C 6.09 g/m*3 15.9 C 9.7 km/h
177 19-05-2015 17:35:00 15.9 C 6.09 g/m*3 15.9 C 11.3 km/h
178 19-05-2015 17:40:00 16.1 C 6.31 g/m*3 16.1 C 11.3 km/h
179 19-05-2015 17:45:00 16.7 C 6.4 g/m*3 16.7 C 16.1 km/h
180 19-05-2015 17:50:00 16.9 C 6.47 g/m*3 16.9 C 11.3 km/h
181 19-05-2015 17:55:00 17.2 C 6.59 g/m*3 17.2 C 16.1 km/h
182 19-05-2015 18:00:00 17.5 C 6.71 g/m*3 17.5 C 16.1 km/h
183 19-05-2015 18:05:00 17.2 C 6.44 g/m*3 17.2 C 14.5 km/h
184 19-05-2015 18:10:00 16.4 C 6.42 g/m*3 16.4 C 14.5 km/h
185 19-05-2015 18:15:00 15.9 C 6.37 g/m*3 15.9 C 11.3 km/h
186 19-05-2015 18:20:00 15.8 C 6.6 g/m*3 15.8 C 11.3 km/h
187 19-05-2015 18:25:00 15.8 C 6.33 g/m*3 15.8 C 11.3 km/h
188 19-05-2015 18:30:00 16 C 6.4 g/m*3 16 C 14.5 km/h
189 19-05-2015 18:35:00 16.6 C 6.5 g/m*3 16.6 C 11.3 km/h
190 19-05-2015 18:40:00 16.9 C 6.47 g/m*3 16.9 C 16.1 km/h
191 19-05-2015 18:45:00 17.2 C 6.44 g/m*3 17.2 C 12.9 km/h
192 19-05-2015 18:50:00 16.9 C 6.47 g/m*3 16.9 C 4.8 km/h
193 19-05-2015 18:55:00 16.6 C 6.36 g/m*3 16.6 C 12.9 km/h
194 19-05-2015 19:00:00 16.4 C 6.42 g/m*3 16.4 C 8.1 km/h
195 19-05-2015 19:05:00 16.6 C 6.5 g/m*3 16.6 C 8.1 km/h
196 19-05-2015 19:10:00 16.7 C 6.54 g/m*3 16.7 C 6.4 km/h
197 19-05-2015 19:15:00 16.7 C 6.25 g/m*3 16.7 C 12.9 km/h
198 19-05-2015 19:20:00 16.7 C 6.11 g/m*3 16.7 C 17.7 km/h
199 19-05-2015 19:25:00 16.2 C 6.07 g/m*3 16.2 C 14.5 km/h
200 19-05-2015 19:30:00 15.7 C 5.89 g/m*3 15.7 C 9.7 km/h
Sensor: Nr:Datum:Temp:Abs-Feuchte:Windchill:Wind:
Aussen-T/F 201 19-05-2015 19:35:00 15.4 C 5.91 g/m*3 15.4 C 9.7 km/h
202 19-05-2015 19:40:00 15.3 C 6.01 g/m*3 15.3 C 6.4 km/h
203 19-05-2015 19:45:00 15.4 C 6.18 g/m*3 15.4 C 8.1 km/h
204 19-05-2015 19:50:00 15.7 C 6.29 g/m*3 15.7 C 9.7 km/h
205 19-05-2015 19:55:00 15.9 C 6.37 g/m*3 15.9 C 9.7 km/h
206 19-05-2015 20:00:00 15.9 C 6.23 g/m*3 15.9 C 6.4 km/h
207 19-05-2015 20:05:00 15.8 C 6.33 g/m*3 15.8 C 11.3 km/h
208 19-05-2015 20:10:00 15.5 C 6.34 g/m*3 15.5 C 4.8 km/h
209 19-05-2015 20:15:00 15.2 C 6.36 g/m*3 15.2 C 6.4 km/h
210 19-05-2015 20:20:00 14.8 C 6.33 g/m*3 14.8 C 11.3 km/h
211 19-05-2015 20:25:00 14.6 C 6.38 g/m*3 14.6 C 6.4 km/h
212 19-05-2015 20:30:00 14.3 C 6.63 g/m*3 14.3 C 1.6 km/h
213 19-05-2015 20:35:00 14.1 C 6.8 g/m*3 14.1 C 1.6 km/h
214 19-05-2015 20:40:00 13.8 C 6.55 g/m*3 13.8 C 3.2 km/h
215 19-05-2015 20:45:00 13.7 C 6.39 g/m*3 13.7 C 6.4 km/h
216 19-05-2015 20:50:00 13.7 C 6.51 g/m*3 13.7 C 3.2 km/h
217 19-05-2015 20:55:00 13.7 C 6.39 g/m*3 13.7 C 4.8 km/h
218 19-05-2015 21:00:00 13.7 C 6.99 g/m*3 13.7 C 1.6 km/h
219 19-05-2015 21:05:00 13.6 C 6.94 g/m*3 13.6 C 1.6 km/h
220 19-05-2015 21:10:00 13.4 C 6.74 g/m*3 13.4 C 0 km/h
221 19-05-2015 21:15:00 13.3 C 6.7 g/m*3 13.3 C 1.6 km/h
222 19-05-2015 21:20:00 13.3 C 6.93 g/m*3 13.3 C 1.6 km/h
223 19-05-2015 21:25:00 13.2 C 6.89 g/m*3 13.2 C 0 km/h
224 19-05-2015 21:30:00 13.2 C 6.89 g/m*3 13.2 C 0 km/h
225 19-05-2015 21:35:00 13.2 C 6.77 g/m*3 13.2 C 1.6 km/h
Sensor: Nr:Datum:Temp:Abs-Feuchte:Windchill:Wind:
Aussen-T/F 226 19-05-2015 21:40:00 13.2 C 6.77 g/m*3 13.2 C 4.8 km/h
227 19-05-2015 21:45:00 13.1 C 6.85 g/m*3 13.1 C 1.6 km/h
228 19-05-2015 21:50:00 12.9 C 6.76 g/m*3 12.9 C 1.6 km/h
229 19-05-2015 21:55:00 12.7 C 6.9 g/m*3 12.7 C 1.6 km/h
230 19-05-2015 22:00:00 12.3 C 6.84 g/m*3 12.3 C 1.6 km/h
231 19-05-2015 22:05:00 12 C 6.93 g/m*3 12 C 1.6 km/h
232 19-05-2015 22:10:00 11.7 C 6.9 g/m*3 11.7 C 1.6 km/h
233 19-05-2015 22:15:00 11.5 C 6.92 g/m*3 11.5 C 1.6 km/h
234 19-05-2015 22:20:00 11.3 C 7.04 g/m*3 11.3 C 1.6 km/h
235 19-05-2015 22:25:00 11.2 C 7.1 g/m*3 11.2 C 1.6 km/h
236 19-05-2015 22:30:00 11.2 C 7.1 g/m*3 11.2 C 1.6 km/h
237 19-05-2015 22:35:00 11.2 C 7.2 g/m*3 11.2 C 0 km/h
238 19-05-2015 22:40:00 11.2 C 7.1 g/m*3 11.2 C 1.6 km/h
239 19-05-2015 22:45:00 11.2 C 7.1 g/m*3 11.2 C 1.6 km/h
240 19-05-2015 22:50:00 11.2 C 7.1 g/m*3 11.2 C 1.6 km/h
241 19-05-2015 22:55:00 11.2 C 7.2 g/m*3 11.2 C 1.6 km/h
242 19-05-2015 23:00:00 11.2 C 7.2 g/m*3 11.2 C 1.6 km/h
243 19-05-2015 23:05:00 11.2 C 7.2 g/m*3 11.2 C 1.6 km/h
244 19-05-2015 23:10:00 11.2 C 7.1 g/m*3 11.2 C 1.6 km/h
245 19-05-2015 23:15:00 11.2 C 7.1 g/m*3 11.2 C 0 km/h
246 19-05-2015 23:20:00 11.1 C 7.15 g/m*3 11.1 C 0 km/h
247 19-05-2015 23:25:00 11.1 C 7.15 g/m*3 11.1 C 0 km/h
248 19-05-2015 23:30:00 11 C 7.21 g/m*3 11 C 0 km/h
249 19-05-2015 23:35:00 10.9 C 7.06 g/m*3 10.9 C 0 km/h
250 19-05-2015 23:40:00 10.9 C 7.26 g/m*3 10.9 C 1.6 km/h
Sensor: Nr:Datum:Temp:Abs-Feuchte:Windchill:Wind:
Aussen-T/F 251 19-05-2015 23:45:00 10.9 C 7.26 g/m*3 10.9 C 0 km/h
252 19-05-2015 23:50:00 10.9 C 7.26 g/m*3 10.9 C 0 km/h
253 19-05-2015 23:55:00 10.8 C 7.22 g/m*3 10.8 C 0 km/h

Legende:
   Min
   Max


Maximal/Minimal-Werte vom 19.05.2015 - 19.05.2015

Sensor Min Max Avg
Temp
(Aussen-T/F)
8.2 °C
19-05-2015  06:50:00
18.3 °C
19-05-2015  16:25:00
13.65 °C
Abs-Feuchte
(Aussen-T/F)
5.79 g/m*3
19-05-2015  16:40:00
9.47 g/m*3
19-05-2015  00:55:00
6.98 g/m*3
Windchill
(Aussen-T/F)
7.11 C
19-05-2015  07:05:00
18.3 C
19-05-2015  16:25:00
13.49 C

Die Daten stammen von einer Davis Vantage Pro 2 Wetter-Station und werden unter Linux mit der Software wview2wettercgi und aufbereitet. Alle Angaben erfolgen ohne Gewähr für ihre Vollständigkeit oder Richtigkeit.
Kontakt: Rainer Krienke krienke@uni-koblenz.de . Meine Webseiten an der Uni Koblenz oder privat.
Version: $Revision: 0.78 $